Flushing, Michigan
Current Conditions -  °F | °C
As of 5:53 PM on Wednesday 22 Oct 2014 (Local Time) from KFNT Reporting Station
Overcast Overcast  
Wind Chill: 50°   Ceiling: 2600
Heat Index: 50°   Visibility: 10mi
Dew Point: 39°   Wind: 9mph
Humidity: 66%   Direction: 350°N
Pressure: 30.31"   Gusts: NA
Location:  43.06°N, 83.85°W
Report Text: KFNT 222153Z 35008KT 10SM OVC026 10/04 A3031 RMK AO2 SLP268 T01000039
Loading
Personal Weather Stations






























Interactive Weather Map
Tropical Storm Tracking
New forecast layout! Learn more

10-Day Weather Forecast

Advertisements
Track Severe Weather on mobile